Port Lincoln Aerodrome, Australia
Current Conditions -  °F | °C
As of 6:00 AM on Wednesday 28 Jan 2015 (Local Time) from YWHA Reporting Station
Clear Clear  
Wind Chill: 61°   Ceiling: Unl
Heat Index: 61°   Visibility: 6mi
Dew Point: 48°   Wind: 10mph
Humidity: 63%   Direction: 140°SE
Pressure: 29.97"   Gusts: NA
Location:  34.6°S, 135.87°E
Report Text: YWHA 272000Z AUTO 14009KT 9999 // NCD 16/09 Q1015
Loading
Personal Weather Stations






























Interactive Weather Map New forecast layout! Learn more

10-Day Weather Forecast

Advertisements
Track Severe Weather on mobile